Time;durP1;ratioP1;P1;durP2;ratioP2;P2;SDS_P1;SDS_P2;PMS_P1;PMS_P2;Temp;Humidity;BMP_temperature;BMP_pressure;BME280_temperature;BME280_humidity;BME280_pressure;Samples;Min_cycle;Max_cycle;Signal;HPM_P1;HPM_P2
2023/08/06 06:32:03;;;;;;;3.47;3.17;;;16.00;99.90;;;;;;4895059;29;21056;-71
2023/08/06 06:34:30;;;;;;;2.70;2.30;;;15.90;99.90;;;;;;4887063;29;20469;-71
2023/08/06 06:36:56;;;;;;;2.90;1.80;;;16.00;99.90;;;;;;4896869;29;20455;-71
2023/08/06 06:39:23;;;;;;;2.43;2.23;;;16.00;99.90;;;;;;4896639;29;21137;-72
2023/08/06 06:41:50;;;;;;;3.50;3.17;;;16.10;99.90;;;;;;4896438;29;20479;-71
2023/08/06 06:44:16;;;;;;;2.13;2.03;;;16.10;99.90;;;;;;4895408;29;20467;-71
2023/08/06 06:46:43;;;;;;;2.67;2.47;;;16.10;99.90;;;;;;4896601;29;20917;-71
2023/08/06 06:49:11;;;;;;;3.50;3.23;;;16.10;99.90;;;;;;4896690;29;20982;-71
2023/08/06 06:51:38;;;;;;;2.30;2.17;;;16.20;99.90;;;;;;4896678;29;20577;-71
2023/08/06 06:54:04;;;;;;;2.40;2.40;;;16.20;99.90;;;;;;4887822;29;20479;-71
2023/08/06 06:56:31;;;;;;;4.23;2.63;;;16.20;99.90;;;;;;4896218;29;21116;-71
2023/08/06 06:58:58;;;;;;;3.03;2.83;;;16.20;99.90;;;;;;4896634;29;20470;-71
2023/08/06 07:01:24;;;;;;;1.90;1.80;;;16.20;99.90;;;;;;4895020;29;20523;-71
2023/08/06 07:03:51;;;;;;;2.87;2.50;;;16.20;99.90;;;;;;4896492;29;20474;-71
2023/08/06 07:06:19;;;;;;;2.97;2.77;;;16.20;99.90;;;;;;4896544;29;20608;-71
2023/08/06 07:08:46;;;;;;;2.60;2.50;;;16.20;99.90;;;;;;4896102;29;20459;-71
2023/08/06 07:11:12;;;;;;;3.40;3.10;;;16.20;99.90;;;;;;4895007;29;20575;-71
2023/08/06 07:13:39;;;;;;;3.27;2.60;;;16.20;99.90;;;;;;4896227;29;20478;-71
2023/08/06 07:16:06;;;;;;;3.37;3.10;;;16.30;99.90;;;;;;4896018;29;21148;-72
2023/08/06 07:18:32;;;;;;;2.80;2.60;;;16.30;99.90;;;;;;4895355;29;20471;-71
2023/08/06 07:20:59;;;;;;;3.00;2.83;;;16.30;99.90;;;;;;4889895;29;20505;-71
2023/08/06 07:23:27;;;;;;;3.13;2.93;;;16.40;99.90;;;;;;4892291;29;20480;-72
2023/08/06 07:25:54;;;;;;;2.30;2.13;;;16.50;99.90;;;;;;4895104;29;20464;-71
2023/08/06 07:28:22;;;;;;;4.83;2.73;;;16.50;99.90;;;;;;4896146;29;20989;-71
2023/08/06 07:30:49;;;;;;;2.93;2.67;;;16.50;99.90;;;;;;4894205;29;20495;-71
2023/08/06 07:33:15;;;;;;;3.03;2.87;;;16.40;99.90;;;;;;4896001;29;20523;-71
2023/08/06 07:35:43;;;;;;;4.03;3.73;;;16.40;99.90;;;;;;4896087;29;20825;-71
2023/08/06 07:38:09;;;;;;;2.87;2.60;;;16.50;99.90;;;;;;4899502;29;20497;-71
2023/08/06 07:40:38;;;;;;;4.27;3.73;;;16.50;99.90;;;;;;4898362;29;20497;-71
2023/08/06 07:43:05;;;;;;;3.60;3.07;;;16.60;99.90;;;;;;4891952;29;20917;-71
2023/08/06 07:45:34;;;;;;;2.70;2.50;;;16.60;99.90;;;;;;4895719;29;20966;-71
2023/08/06 07:48:01;;;;;;;3.77;3.47;;;16.70;99.90;;;;;;4895660;29;20538;-71
2023/08/06 07:50:28;;;;;;;3.00;2.80;;;16.70;99.90;;;;;;4888225;29;20476;-71
2023/08/06 07:52:54;;;;;;;3.10;2.90;;;16.70;99.90;;;;;;4894443;29;20495;-71
2023/08/06 07:55:21;;;;;;;13.07;3.07;;;16.70;99.90;;;;;;4893180;29;20475;-71
2023/08/06 07:57:49;;;;;;;3.50;2.47;;;16.70;99.90;;;;;;4911606;29;20558;-71
2023/08/06 08:00:16;;;;;;;2.93;2.83;;;16.60;99.90;;;;;;4901109;29;20479;-71
2023/08/06 08:02:42;;;;;;;2.80;2.70;;;16.60;99.90;;;;;;4897243;29;20448;-71
2023/08/06 08:05:09;;;;;;;2.90;2.70;;;16.60;99.90;;;;;;4899838;29;20459;-71
2023/08/06 08:07:36;;;;;;;1.90;1.80;;;16.50;99.90;;;;;;4901461;29;20574;-71
2023/08/06 08:10:03;;;;;;;3.07;2.80;;;16.40;99.90;;;;;;4894799;29;20483;-72
2023/08/06 08:12:29;;;;;;;3.30;3.03;;;16.40;99.90;;;;;;4895457;29;20583;-72
2023/08/06 08:14:57;;;;;;;6.10;3.10;;;16.50;99.90;;;;;;4896232;29;20470;-72
2023/08/06 08:17:24;;;;;;;3.10;2.90;;;16.50;99.90;;;;;;4896477;29;20954;-71
2023/08/06 08:19:51;;;;;;;3.73;3.27;;;16.60;99.90;;;;;;4888910;29;20499;-71
2023/08/06 08:22:17;;;;;;;2.60;2.47;;;16.60;99.90;;;;;;4894377;29;20483;-71
2023/08/06 08:24:44;;;;;;;4.00;3.60;;;16.60;99.90;;;;;;4894722;29;20466;-71
2023/08/06 08:27:11;;;;;;;3.80;3.37;;;16.60;99.90;;;;;;4895043;29;20468;-71
2023/08/06 08:29:37;;;;;;;10.87;3.10;;;16.60;99.90;;;;;;4894701;29;20471;-70
2023/08/06 08:32:06;;;;;;;4.33;3.90;;;16.60;99.90;;;;;;4894745;29;20490;-71
2023/08/06 08:34:32;;;;;;;3.53;3.43;;;16.70;99.90;;;;;;4894340;29;20489;-71
2023/08/06 08:36:59;;;;;;;3.07;2.97;;;16.70;99.90;;;;;;4894266;29;20472;-70
2023/08/06 08:39:26;;;;;;;5.13;3.47;;;16.70;99.90;;;;;;4893395;29;20475;-71
2023/08/06 08:41:53;;;;;;;6.43;4.80;;;16.80;99.90;;;;;;4894808;29;20505;-71
2023/08/06 08:44:20;;;;;;;4.03;3.07;;;16.70;99.90;;;;;;4895126;29;20463;-71
2023/08/06 08:46:49;;;;;;;3.07;2.93;;;16.70;99.90;;;;;;4895236;29;20467;-71
2023/08/06 08:49:18;;;;;;;4.67;3.47;;;16.70;99.90;;;;;;4894107;29;20527;-71
2023/08/06 08:51:46;;;;;;;7.03;4.10;;;16.70;99.90;;;;;;4894443;29;20499;-71
2023/08/06 08:54:16;;;;;;;3.40;3.20;;;16.60;99.90;;;;;;4894338;29;20467;-70
2023/08/06 08:56:42;;;;;;;4.37;4.07;;;16.60;99.90;;;;;;4894510;29;20550;-70
2023/08/06 08:59:10;;;;;;;3.27;3.13;;;16.70;99.90;;;;;;4891368;29;20484;-70
2023/08/06 09:01:40;;;;;;;4.50;4.20;;;16.80;99.90;;;;;;4886247;29;20525;-70
2023/08/06 09:04:08;;;;;;;4.70;3.40;;;16.90;99.90;;;;;;4887045;29;20456;-70
2023/08/06 09:06:39;;;;;;;3.93;3.73;;;16.80;99.90;;;;;;4894068;29;20463;-70
2023/08/06 09:09:09;;;;;;;3.43;3.20;;;16.90;99.90;;;;;;4894173;29;20466;-70
2023/08/06 09:11:44;;;;;;;3.83;3.70;;;16.90;99.90;;;;;;4892903;29;20495;-70
2023/08/06 09:14:11;;;;;;;4.10;3.80;;;16.90;99.90;;;;;;4893968;29;20478;-70
2023/08/06 09:16:39;;;;;;;4.43;3.77;;;16.90;99.90;;;;;;4894558;29;20884;-70
2023/08/06 09:19:09;;;;;;;4.17;3.87;;;17.00;99.90;;;;;;4893137;29;20502;-70
2023/08/06 09:21:39;;;;;;;3.63;3.40;;;17.00;99.90;;;;;;4894134;29;20479;-70
2023/08/06 09:24:10;;;;;;;6.10;4.17;;;17.20;99.90;;;;;;4893595;29;20506;-70
2023/08/06 09:26:37;;;;;;;4.57;3.93;;;17.30;99.90;;;;;;4893780;29;20525;-70
2023/08/06 09:29:06;;;;;;;3.40;3.10;;;17.30;99.90;;;;;;4893531;29;20479;-70
2023/08/06 09:31:41;;;;;;;5.30;3.80;;;17.30;99.90;;;;;;4885622;29;20545;-70
2023/08/06 09:34:12;;;;;;;3.20;3.00;;;17.10;99.90;;;;;;4912776;29;20454;-70
2023/08/06 09:36:42;;;;;;;3.40;3.20;;;17.20;99.90;;;;;;4913098;29;20901;-70
2023/08/06 09:39:14;;;;;;;5.10;4.03;;;17.20;99.90;;;;;;4892427;29;20935;-70
2023/08/06 09:41:41;;;;;;;3.80;3.50;;;17.30;99.90;;;;;;4893515;29;20943;-70
2023/08/06 09:44:18;;;;;;;3.10;3.00;;;17.50;99.90;;;;;;4893794;29;20463;-70
2023/08/06 09:46:48;;;;;;;4.30;4.00;;;17.50;99.90;;;;;;4894189;29;20463;-70
2023/08/06 09:49:15;;;;;;;3.30;3.10;;;17.60;99.90;;;;;;4894247;29;20955;-70
2023/08/06 09:51:44;;;;;;;4.10;3.80;;;17.70;99.90;;;;;;4897810;29;20486;-70
2023/08/06 09:54:13;;;;;;;4.30;3.60;;;17.70;99.90;;;;;;4897359;29;20471;-70
2023/08/06 09:56:41;;;;;;;4.03;3.63;;;17.80;99.90;;;;;;4897454;29;20460;-70
2023/08/06 09:59:08;;;;;;;3.53;3.30;;;17.60;99.90;;;;;;4896652;29;20495;-69
2023/08/06 10:01:36;;;;;;;3.70;3.50;;;17.60;99.90;;;;;;4897423;29;20567;-70
2023/08/06 10:04:04;;;;;;;5.40;3.47;;;17.70;99.90;;;;;;4897409;29;20458;-70
2023/08/06 10:06:34;;;;;;;6.40;4.37;;;17.90;99.90;;;;;;4897328;29;20464;-70
2023/08/06 10:09:03;;;;;;;3.57;3.40;;;17.90;99.90;;;;;;4896041;29;21059;-70
2023/08/06 10:11:30;;;;;;;4.67;3.67;;;18.10;99.90;;;;;;4897116;29;20975;-70
2023/08/06 10:14:06;;;;;;;5.07;3.80;;;18.10;99.90;;;;;;4897575;29;20496;-71
2023/08/06 10:16:33;;;;;;;3.30;3.13;;;18.20;99.90;;;;;;4893184;29;20855;-70
2023/08/06 10:19:02;;;;;;;3.50;3.30;;;18.40;99.90;;;;;;4897604;29;20469;-70
2023/08/06 10:21:30;;;;;;;3.10;2.90;;;18.30;99.90;;;;;;4897015;29;20970;-70
2023/08/06 10:23:57;;;;;;;3.43;3.00;;;18.20;99.90;;;;;;4896618;29;20468;-70
2023/08/06 10:26:28;;;;;;;6.70;3.60;;;18.30;99.90;;;;;;4888798;29;20605;-70
2023/08/06 10:28:55;;;;;;;3.00;2.87;;;18.50;99.90;;;;;;4897128;29;20496;-70
2023/08/06 10:31:46;;;;;;;4.40;4.00;;;18.50;99.90;;;;;;4897229;29;20492;-70
2023/08/06 10:34:18;;;;;;;3.20;3.00;;;18.40;99.90;;;;;;4888735;29;20506;-70
2023/08/06 10:36:45;;;;;;;3.87;3.67;;;18.30;99.90;;;;;;4897212;29;20492;-70
2023/08/06 10:39:14;;;;;;;2.60;2.40;;;18.20;99.90;;;;;;4896503;29;20476;-70
2023/08/06 10:41:43;;;;;;;2.90;2.80;;;18.20;99.90;;;;;;4896568;29;20487;-70
2023/08/06 10:44:11;;;;;;;3.17;3.07;;;18.30;99.90;;;;;;4895638;29;20504;-70
2023/08/06 10:46:38;;;;;;;3.70;3.40;;;18.40;99.90;;;;;;4896702;29;20463;-70
2023/08/06 10:49:07;;;;;;;5.40;4.10;;;18.30;99.90;;;;;;4896670;29;20479;-70
2023/08/06 10:51:33;;;;;;;4.27;3.93;;;18.50;99.90;;;;;;4896920;29;20574;-70
2023/08/06 10:54:00;;;;;;;3.77;3.47;;;18.70;99.90;;;;;;4894469;29;20494;-70
2023/08/06 10:56:27;;;;;;;4.13;2.97;;;18.90;99.90;;;;;;4896230;29;20460;-70
2023/08/06 10:58:57;;;;;;;3.73;3.00;;;18.90;99.90;;;;;;4896733;29;20545;-70
2023/08/06 11:01:24;;;;;;;3.10;2.90;;;19.10;99.90;;;;;;4895196;29;20496;-70
2023/08/06 11:03:53;;;;;;;3.47;3.17;;;19.40;99.90;;;;;;4893401;29;20485;-70
2023/08/06 11:06:20;;;;;;;3.20;3.00;;;19.50;99.90;;;;;;4895154;29;20553;-70
2023/08/06 11:08:51;;;;;;;2.60;2.50;;;19.60;99.90;;;;;;4900512;29;20476;-70
2023/08/06 11:11:19;;;;;;;2.37;2.20;;;19.70;99.90;;;;;;4914902;29;20545;-70
2023/08/06 11:13:47;;;;;;;3.57;2.33;;;19.70;99.90;;;;;;4903209;29;20502;-70
2023/08/06 11:16:16;;;;;;;2.37;2.33;;;19.70;99.90;;;;;;4896129;29;20475;-70
2023/08/06 11:18:43;;;;;;;3.50;3.20;;;19.80;99.90;;;;;;4896608;29;20570;-70
2023/08/06 11:21:10;;;;;;;1.70;1.60;;;19.90;99.90;;;;;;4896621;29;20488;-71
2023/08/06 11:23:36;;;;;;;3.90;2.57;;;20.00;99.90;;;;;;4892457;29;20479;-70
2023/08/06 11:26:03;;;;;;;3.10;3.00;;;19.90;99.90;;;;;;4895860;29;20979;-70
2023/08/06 11:28:30;;;;;;;2.20;2.20;;;19.90;99.90;;;;;;4896678;29;20498;-71
2023/08/06 11:31:00;;;;;;;2.10;2.00;;;19.80;99.90;;;;;;4889521;29;20499;-70
2023/08/06 11:33:29;;;;;;;1.63;1.63;;;19.80;99.90;;;;;;4896277;29;20717;-71
2023/08/06 11:35:57;;;;;;;1.70;1.60;;;19.80;99.90;;;;;;4895993;29;20467;-70
2023/08/06 11:38:26;;;;;;;1.80;1.80;;;19.80;99.90;;;;;;4895776;29;20467;-72
2023/08/06 11:40:52;;;;;;;2.00;1.90;;;19.80;99.90;;;;;;4895513;29;20615;-71
2023/08/06 11:43:22;;;;;;;1.97;1.87;;;19.80;99.90;;;;;;4895816;29;20469;-71
2023/08/06 11:45:50;;;;;;;2.33;2.33;;;19.70;99.90;;;;;;4895860;29;20474;-71
2023/08/06 11:48:18;;;;;;;1.80;1.80;;;19.80;99.90;;;;;;4895981;29;20554;-71
2023/08/06 11:50:46;;;;;;;1.70;1.70;;;20.00;99.90;;;;;;4894866;29;20575;-71
2023/08/06 11:53:14;;;;;;;1.70;1.60;;;20.10;99.90;;;;;;4895166;29;21005;-71
2023/08/06 11:55:42;;;;;;;1.70;1.70;;;20.20;99.90;;;;;;4895454;29;20560;-71
2023/08/06 11:58:11;;;;;;;1.73;1.67;;;20.20;99.90;;;;;;4894964;29;20468;-71
2023/08/06 12:00:37;;;;;;;1.97;1.93;;;20.10;99.90;;;;;;4894504;29;20570;-71
2023/08/06 12:03:06;;;;;;;1.43;1.43;;;19.90;99.90;;;;;;4895455;29;20453;-71
2023/08/06 12:05:34;;;;;;;1.30;1.30;;;19.90;99.90;;;;;;4894967;29;20818;-71
2023/08/06 12:08:03;;;;;;;1.40;1.40;;;19.80;99.90;;;;;;4894798;29;20467;-71
2023/08/06 12:10:31;;;;;;;2.23;2.13;;;19.60;99.90;;;;;;4894453;29;20571;-71
2023/08/06 12:12:58;;;;;;;1.80;1.70;;;19.60;99.90;;;;;;4894455;29;20993;-69
2023/08/06 12:15:24;;;;;;;1.33;1.33;;;19.60;99.90;;;;;;4895641;29;20467;-69
2023/08/06 12:17:52;;;;;;;4.00;2.13;;;19.50;99.90;;;;;;4895227;29;20985;-68
2023/08/06 12:20:18;;;;;;;2.27;2.17;;;19.60;99.90;;;;;;4895099;29;20467;-70
2023/08/06 12:22:45;;;;;;;1.33;1.33;;;19.80;99.90;;;;;;4886745;29;21060;-68
2023/08/06 12:25:14;;;;;;;2.47;2.33;;;19.90;99.90;;;;;;4894227;29;20549;-68
2023/08/06 12:27:42;;;;;;;2.40;2.20;;;19.90;99.90;;;;;;4894299;29;20986;-68
2023/08/06 12:30:09;;;;;;;2.50;2.40;;;19.90;99.90;;;;;;4894127;29;20479;-68
2023/08/06 12:32:36;;;;;;;2.07;1.97;;;20.00;99.90;;;;;;4894033;29;20600;-67
2023/08/06 12:35:04;;;;;;;1.73;1.73;;;19.90;99.90;;;;;;4894735;29;20475;-68
2023/08/06 12:37:31;;;;;;;2.10;2.10;;;20.00;99.90;;;;;;4875891;29;20474;-69
2023/08/06 12:39:58;;;;;;;1.80;1.70;;;20.10;99.90;;;;;;4880121;29;20571;-69
2023/08/06 12:42:26;;;;;;;2.20;2.10;;;20.30;99.90;;;;;;4892961;29;20498;-69
2023/08/06 12:44:52;;;;;;;2.67;2.57;;;20.40;99.90;;;;;;4907265;29;20458;-69
2023/08/06 12:47:19;;;;;;;3.27;3.00;;;20.20;99.90;;;;;;4913354;29;21006;-69
2023/08/06 12:49:46;;;;;;;3.27;3.10;;;20.10;99.90;;;;;;4908209;29;20485;-69
2023/08/06 12:52:15;;;;;;;6.20;3.93;;;20.10;99.90;;;;;;4894634;29;20861;-69
2023/08/06 12:54:42;;;;;;;2.80;2.70;;;20.30;99.90;;;;;;4893910;29;20598;-69
2023/08/06 12:57:09;;;;;;;2.37;2.27;;;20.40;99.90;;;;;;4894278;29;20470;-69
2023/08/06 12:59:37;;;;;;;4.97;2.73;;;20.40;99.90;;;;;;4893710;29;20471;-70
2023/08/06 13:02:04;;;;;;;3.27;3.07;;;20.50;99.90;;;;;;4895612;29;20577;-69
2023/08/06 13:04:31;;;;;;;2.90;2.80;;;20.50;99.90;;;;;;4894051;29;20994;-69
2023/08/06 13:06:58;;;;;;;2.50;2.40;;;20.60;99.90;;;;;;4897185;29;20470;-69
2023/08/06 13:09:25;;;;;;;1.83;1.73;;;20.50;99.90;;;;;;4912466;29;20474;-68
2023/08/06 13:11:52;;;;;;;2.70;2.60;;;20.50;99.90;;;;;;4892150;29;21018;-69
2023/08/06 13:14:19;;;;;;;2.23;2.13;;;20.50;99.90;;;;;;4891982;29;20801;-69
2023/08/06 13:16:47;;;;;;;2.80;2.70;;;20.50;99.90;;;;;;4894412;29;20464;-70
2023/08/06 13:19:14;;;;;;;3.30;3.10;;;20.70;99.90;;;;;;4894458;29;20471;-69
2023/08/06 13:22:01;;;;;;;2.70;2.60;;;20.70;99.90;;;;;;4892437;29;20498;-69
2023/08/06 13:24:28;;;;;;;2.60;2.50;;;20.50;99.90;;;;;;4887097;29;20813;-69
2023/08/06 13:26:55;;;;;;;3.43;2.63;;;20.40;99.90;;;;;;4893632;29;20477;-69
2023/08/06 13:29:22;;;;;;;7.40;3.07;;;20.30;99.90;;;;;;4894338;29;20524;-69
2023/08/06 13:31:50;;;;;;;2.50;2.40;;;20.30;99.90;;;;;;4893231;29;20501;-69
2023/08/06 13:34:17;;;;;;;2.53;2.43;;;20.30;99.90;;;;;;4893655;29;20577;-68
2023/08/06 13:36:44;;;;;;;2.87;2.67;;;20.30;99.90;;;;;;4894191;29;20558;-69
2023/08/06 13:39:11;;;;;;;3.00;2.90;;;20.30;99.90;;;;;;4894020;29;20479;-69
2023/08/06 13:41:38;;;;;;;2.30;2.13;;;20.30;99.90;;;;;;4892675;29;20499;-69
2023/08/06 13:44:05;;;;;;;4.00;2.43;;;20.10;99.90;;;;;;4894115;29;20881;-69
2023/08/06 13:46:32;;;;;;;3.20;2.97;;;20.10;99.90;;;;;;4894111;29;20467;-69
2023/08/06 13:48:59;;;;;;;2.77;2.57;;;20.20;99.90;;;;;;4894044;29;20470;-69
2023/08/06 13:51:26;;;;;;;2.50;2.40;;;20.30;99.90;;;;;;4893036;29;20503;-69
2023/08/06 13:53:54;;;;;;;4.67;2.73;;;20.20;99.90;;;;;;4893411;29;20489;-69
2023/08/06 13:56:20;;;;;;;2.83;2.73;;;20.20;99.90;;;;;;4898415;29;20480;-69
2023/08/06 13:58:47;;;;;;;2.67;2.47;;;20.10;99.90;;;;;;4913019;29;21051;-69
2023/08/06 14:01:17;;;;;;;3.87;3.30;;;20.20;99.90;;;;;;4904206;29;20559;-69
2023/08/06 14:03:44;;;;;;;2.83;2.63;;;20.30;99.90;;;;;;4894230;29;20464;-69
2023/08/06 14:06:12;;;;;;;2.87;2.77;;;20.30;99.90;;;;;;4895735;29;20474;-70
2023/08/06 14:08:38;;;;;;;4.17;3.20;;;20.30;99.90;;;;;;4895488;29;20466;-69
2023/08/06 14:11:07;;;;;;;3.43;3.03;;;20.10;99.90;;;;;;4893764;29;21025;-70
2023/08/06 14:13:33;;;;;;;3.27;3.17;;;20.30;99.90;;;;;;4894387;29;20542;-69
2023/08/06 14:16:00;;;;;;;6.30;3.60;;;20.40;99.90;;;;;;4894430;29;20475;-69
2023/08/06 14:18:27;;;;;;;2.90;2.60;;;20.40;99.90;;;;;;4894073;29;20550;-69
2023/08/06 14:20:54;;;;;;;3.53;3.23;;;20.50;99.90;;;;;;4893096;29;20917;-70
2023/08/06 14:23:22;;;;;;;3.37;3.17;;;20.30;99.90;;;;;;4893483;29;20471;-69
2023/08/06 14:25:49;;;;;;;3.73;3.43;;;20.30;99.90;;;;;;4895049;29;20479;-69
2023/08/06 14:28:15;;;;;;;4.00;3.70;;;20.40;99.90;;;;;;4893721;29;20467;-69
2023/08/06 14:30:42;;;;;;;2.70;2.60;;;20.40;99.90;;;;;;4893143;29;20982;-69
2023/08/06 14:33:09;;;;;;;3.53;3.23;;;20.40;99.90;;;;;;4893687;29;20467;-69
2023/08/06 14:35:35;;;;;;;3.70;3.10;;;20.50;99.90;;;;;;4895660;29;20510;-68
2023/08/06 14:38:02;;;;;;;2.57;2.47;;;20.70;99.90;;;;;;4896830;29;20470;-69
2023/08/06 14:40:33;;;;;;;2.97;2.77;;;20.80;99.90;;;;;;4895727;29;20574;-69
2023/08/06 14:43:01;;;;;;;2.80;2.60;;;20.70;99.90;;;;;;4892681;29;20466;-69
2023/08/06 14:45:27;;;;;;;3.53;3.33;;;20.80;99.90;;;;;;4896753;29;20464;-69
2023/08/06 14:47:54;;;;;;;2.40;2.33;;;20.90;99.90;;;;;;4896690;29;21074;-69
2023/08/06 14:50:21;;;;;;;2.83;2.20;;;20.80;99.90;;;;;;4897401;29;20475;-69
2023/08/06 14:52:47;;;;;;;2.10;2.10;;;20.70;99.90;;;;;;4895842;29;20474;-69
2023/08/06 14:55:23;;;;;;;3.70;2.67;;;20.70;99.90;;;;;;4896823;29;20493;-69
2023/08/06 14:57:52;;;;;;;2.87;2.77;;;20.70;99.90;;;;;;4896301;29;20561;-69
2023/08/06 15:00:18;;;;;;;2.67;2.47;;;20.60;99.90;;;;;;4896750;29;20470;-69
2023/08/06 15:02:45;;;;;;;1.90;1.90;;;20.40;99.90;;;;;;4895207;29;20485;-68
2023/08/06 15:05:12;;;;;;;1.90;1.80;;;20.40;99.90;;;;;;4901118;29;20466;-68
2023/08/06 15:07:38;;;;;;;1.63;1.60;;;20.40;99.90;;;;;;4905751;29;20457;-68
2023/08/06 15:10:07;;;;;;;3.60;2.00;;;20.40;99.90;;;;;;4896872;29;20480;-68
2023/08/06 15:12:34;;;;;;;2.83;1.90;;;20.40;99.90;;;;;;4939057;23;21060;-69
2023/08/06 15:15:02;;;;;;;1.77;1.67;;;20.50;99.90;;;;;;4929172;29;20492;-70
2023/08/06 15:17:29;;;;;;;1.60;1.60;;;20.60;99.90;;;;;;4919150;29;20465;-69
2023/08/06 15:19:58;;;;;;;2.20;2.10;;;20.60;99.90;;;;;;4916045;29;20497;-70
2023/08/06 15:22:25;;;;;;;1.30;1.30;;;20.40;99.90;;;;;;4919849;29;20527;-70
2023/08/06 15:24:51;;;;;;;2.27;2.07;;;20.20;99.90;;;;;;4917090;29;20462;-70
2023/08/06 15:27:18;;;;;;;0.90;0.90;;;20.30;99.90;;;;;;4914759;29;20462;-70
2023/08/06 15:29:45;;;;;;;0.77;0.77;;;20.20;99.90;;;;;;4920553;29;20473;-70
2023/08/06 15:32:13;;;;;;;2.03;1.50;;;20.20;99.90;;;;;;4914095;29;20576;-70
2023/08/06 15:34:40;;;;;;;1.50;1.50;;;20.10;99.90;;;;;;4914589;29;20517;-70
2023/08/06 15:37:07;;;;;;;1.17;1.17;;;20.00;99.90;;;;;;4914789;29;20465;-70
2023/08/06 15:39:34;;;;;;;1.27;1.27;;;19.90;99.90;;;;;;4914804;29;20480;-70
2023/08/06 15:42:00;;;;;;;4.90;2.00;;;19.80;99.90;;;;;;4910046;29;20494;-70
2023/08/06 15:44:27;;;;;;;1.63;1.63;;;19.80;99.90;;;;;;4916696;29;20492;-68
2023/08/06 15:46:54;;;;;;;2.30;1.73;;;19.80;99.90;;;;;;4909701;29;20487;-67
2023/08/06 15:49:22;;;;;;;2.10;1.27;;;19.80;99.90;;;;;;4908829;29;20565;-69
2023/08/06 15:51:48;;;;;;;1.67;1.27;;;19.80;99.90;;;;;;4911723;29;20496;-68
2023/08/06 15:54:15;;;;;;;1.80;1.10;;;19.90;99.90;;;;;;4914126;29;20491;-68
2023/08/06 15:56:41;;;;;;;5.10;1.23;;;19.90;99.90;;;;;;4913811;29;20465;-69
2023/08/06 15:59:25;;;;;;;1.10;1.10;;;19.80;99.90;;;;;;4913608;29;20482;-68
2023/08/06 16:01:52;;;;;;;0.80;0.80;;;19.80;99.90;;;;;;4906857;29;20234;-68
2023/08/06 16:04:19;;;;;;;0.90;0.90;;;19.80;99.90;;;;;;4912349;29;20466;-69
2023/08/06 16:06:47;;;;;;;0.90;0.90;;;19.80;99.90;;;;;;4913551;29;20572;-69
2023/08/06 16:09:15;;;;;;;1.40;1.30;;;19.70;99.90;;;;;;4912039;29;20478;-70
2023/08/06 16:11:42;;;;;;;2.23;0.90;;;19.70;99.90;;;;;;4913531;29;20513;-70
2023/08/06 16:14:08;;;;;;;1.57;1.57;;;19.70;99.90;;;;;;4913435;29;20507;-70
2023/08/06 16:16:35;;;;;;;1.00;1.00;;;19.60;99.90;;;;;;4913935;29;20477;-70
2023/08/06 16:19:02;;;;;;;1.73;1.73;;;19.60;99.90;;;;;;4895565;29;20463;-70
2023/08/06 16:21:29;;;;;;;1.47;1.37;;;19.50;99.90;;;;;;4913177;29;20574;-69
2023/08/06 16:23:57;;;;;;;1.43;1.43;;;19.40;99.90;;;;;;4912550;29;20467;-69
2023/08/06 16:26:23;;;;;;;1.40;1.40;;;19.30;99.90;;;;;;4908046;29;20476;-68
2023/08/06 16:28:50;;;;;;;1.00;1.00;;;19.20;99.90;;;;;;4910244;29;20478;-68
2023/08/06 16:31:17;;;;;;;1.60;1.50;;;19.10;99.90;;;;;;4913252;29;20495;-69
2023/08/06 16:33:43;;;;;;;2.30;1.50;;;19.00;99.90;;;;;;4912840;29;20973;-69
2023/08/06 16:36:10;;;;;;;1.93;1.70;;;18.90;99.90;;;;;;4913743;29;20509;-68
2023/08/06 16:38:37;;;;;;;1.73;1.63;;;18.80;99.90;;;;;;4909878;29;20478;-68
2023/08/06 16:41:05;;;;;;;1.50;1.03;;;18.70;99.90;;;;;;4907576;29;20469;-68
2023/08/06 16:43:32;;;;;;;2.07;1.30;;;18.50;99.90;;;;;;4913356;29;20470;-68
2023/08/06 16:45:58;;;;;;;2.13;1.83;;;18.40;99.90;;;;;;4913831;29;20874;-68
2023/08/06 16:48:27;;;;;;;1.97;1.90;;;18.40;99.90;;;;;;4914315;29;20837;-68
2023/08/06 16:50:54;;;;;;;1.37;1.37;;;18.30;99.90;;;;;;4913228;29;20549;-69
2023/08/06 16:53:21;;;;;;;1.67;1.57;;;18.20;99.90;;;;;;4912625;29;20578;-68
2023/08/06 16:55:48;;;;;;;1.13;1.13;;;18.20;99.90;;;;;;4911110;29;20535;-68
2023/08/06 16:58:16;;;;;;;2.63;1.50;;;18.20;99.90;;;;;;4912991;29;20494;-69
2023/08/06 17:00:45;;;;;;;2.20;2.10;;;18.20;99.90;;;;;;4914338;29;20466;-69
2023/08/06 17:03:11;;;;;;;1.47;1.37;;;18.10;99.90;;;;;;4912563;29;20979;-68
2023/08/06 17:05:38;;;;;;;2.07;2.00;;;18.10;99.90;;;;;;4905530;29;20486;-68
2023/08/06 17:08:05;;;;;;;1.80;1.80;;;18.10;99.90;;;;;;4912524;29;20474;-68
2023/08/06 17:10:33;;;;;;;1.43;1.33;;;18.00;99.90;;;;;;4912919;29;20454;-68
2023/08/06 17:12:59;;;;;;;2.00;1.90;;;18.00;99.90;;;;;;4906650;29;20503;-68
2023/08/06 17:15:27;;;;;;;2.13;1.97;;;18.00;99.90;;;;;;4910197;29;20493;-68
2023/08/06 17:17:54;;;;;;;2.20;2.10;;;18.10;99.90;;;;;;4914978;29;20953;-68
2023/08/06 17:20:21;;;;;;;1.57;1.50;;;18.10;99.90;;;;;;4914130;29;20473;-68
2023/08/06 17:22:47;;;;;;;2.63;1.83;;;18.10;99.90;;;;;;4911356;29;20490;-68
2023/08/06 17:25:14;;;;;;;3.60;2.17;;;18.10;99.90;;;;;;4912282;29;20466;-69
2023/08/06 17:27:41;;;;;;;2.00;1.73;;;18.00;99.90;;;;;;4905262;29;20474;-69
2023/08/06 17:30:08;;;;;;;2.27;2.27;;;17.90;99.90;;;;;;4912447;29;20466;-69
2023/08/06 17:32:39;;;;;;;1.80;1.57;;;17.90;99.90;;;;;;4909882;29;21007;-68
2023/08/06 17:35:06;;;;;;;4.57;1.77;;;17.90;99.90;;;;;;4913253;29;20655;-69
2023/08/06 17:37:33;;;;;;;1.63;1.53;;;17.90;99.90;;;;;;4912874;29;20463;-67
2023/08/06 17:40:00;;;;;;;2.73;1.77;;;17.80;99.90;;;;;;4912995;29;20548;-68
2023/08/06 17:42:26;;;;;;;1.77;1.70;;;17.80;99.90;;;;;;4906469;29;21017;-67
2023/08/06 17:44:53;;;;;;;1.87;1.60;;;17.80;99.90;;;;;;4908071;29;20467;-68
2023/08/06 17:47:20;;;;;;;1.90;1.80;;;17.80;99.90;;;;;;4924804;29;20465;-68
2023/08/06 17:49:48;;;;;;;1.80;1.70;;;17.80;99.90;;;;;;4912925;29;20466;-68
2023/08/06 17:52:14;;;;;;;2.40;2.20;;;17.80;99.90;;;;;;4909087;29;20953;-68
2023/08/06 17:54:41;;;;;;;2.47;1.30;;;17.70;99.90;;;;;;4900135;29;20491;-69
2023/08/06 17:57:08;;;;;;;1.27;1.27;;;17.80;99.90;;;;;;4910725;29;20470;-69
2023/08/06 17:59:34;;;;;;;2.40;2.30;;;17.70;99.90;;;;;;4914246;29;20467;-68
2023/08/06 18:02:01;;;;;;;1.70;1.60;;;17.70;99.90;;;;;;4911391;29;20509;-69
2023/08/06 18:04:28;;;;;;;2.23;2.13;;;17.70;99.90;;;;;;4911763;29;20463;-69
2023/08/06 18:06:56;;;;;;;1.63;1.53;;;17.70;99.90;;;;;;4906132;29;20471;-69
2023/08/06 18:09:23;;;;;;;2.63;2.43;;;17.70;99.90;;;;;;4911940;29;20469;-70
2023/08/06 18:11:49;;;;;;;7.00;2.07;;;17.70;99.90;;;;;;4914602;29;20963;-68
2023/08/06 18:14:16;;;;;;;1.30;1.30;;;17.60;99.90;;;;;;4907149;29;20466;-68
2023/08/06 18:16:43;;;;;;;2.30;2.20;;;17.60;99.90;;;;;;4912994;29;20502;-68
2023/08/06 18:19:09;;;;;;;1.73;1.73;;;17.60;99.90;;;;;;4913134;29;20834;-69
2023/08/06 18:21:36;;;;;;;2.40;2.30;;;17.60;99.90;;;;;;4908506;29;20487;-70
2023/08/06 18:24:04;;;;;;;1.57;1.57;;;17.60;99.90;;;;;;4905201;29;20474;-69
2023/08/06 18:26:31;;;;;;;1.77;1.70;;;17.50;99.90;;;;;;4914765;29;20473;-69
2023/08/06 18:28:58;;;;;;;1.50;1.50;;;17.50;99.90;;;;;;4914767;29;20469;-70
2023/08/06 18:31:24;;;;;;;1.70;1.67;;;17.50;99.90;;;;;;4909324;29;20502;-70
2023/08/06 18:33:51;;;;;;;2.07;1.97;;;17.40;99.90;;;;;;4913401;29;20478;-70
2023/08/06 18:36:18;;;;;;;1.33;1.33;;;17.50;99.90;;;;;;4915228;29;20490;-70
2023/08/06 18:38:49;;;;;;;1.23;1.07;;;17.40;99.90;;;;;;4914671;29;20474;-70
2023/08/06 18:41:18;;;;;;;1.23;1.13;;;17.40;99.90;;;;;;4913339;29;20505;-70
2023/08/06 18:43:45;;;;;;;1.67;1.57;;;17.40;99.90;;;;;;4912393;29;20560;-70
2023/08/06 18:46:12;;;;;;;2.23;2.13;;;17.30;99.90;;;;;;4909960;29;20969;-71
2023/08/06 18:48:38;;;;;;;4.10;2.00;;;17.30;99.90;;;;;;4913929;29;20985;-70
2023/08/06 18:51:05;;;;;;;3.10;2.50;;;17.30;99.90;;;;;;4912272;29;20497;-70
2023/08/06 18:53:32;;;;;;;7.33;1.77;;;17.30;99.90;;;;;;4902340;29;20851;-71
2023/08/06 18:55:58;;;;;;;1.93;1.83;;;17.30;99.90;;;;;;4904885;29;20515;-70
2023/08/06 18:58:27;;;;;;;1.97;1.87;;;17.20;99.90;;;;;;4913596;29;20474;-71
2023/08/06 19:00:57;;;;;;;2.13;2.03;;;17.20;99.90;;;;;;4909181;29;20568;-70
2023/08/06 19:03:24;;;;;;;2.20;1.97;;;17.20;99.90;;;;;;4909750;29;20502;-71
2023/08/06 19:05:50;;;;;;;1.90;1.87;;;17.20;99.90;;;;;;4909513;29;20526;-71
2023/08/06 19:08:18;;;;;;;6.70;2.90;;;17.10;99.90;;;;;;4908433;29;20479;-71
2023/08/06 19:10:45;;;;;;;1.93;1.83;;;17.10;99.90;;;;;;4913853;29;20557;-71
2023/08/06 19:13:12;;;;;;;1.40;1.40;;;17.10;99.90;;;;;;4913117;29;20886;-70
2023/08/06 19:15:46;;;;;;;2.53;2.43;;;17.00;99.90;;;;;;4914510;29;20490;-71
2023/08/06 19:18:12;;;;;;;1.93;1.83;;;17.10;99.90;;;;;;4913377;29;20478;-71
2023/08/06 19:20:42;;;;;;;1.53;1.43;;;17.00;99.90;;;;;;4912197;29;20477;-70